sensor_id;sensor_type;location;lat;lon;timestamp;temperature;humidity
52189;DHT22;38162;45.926;13.608;2023-02-11T00:00:34;2.40;54.90
52189;DHT22;38162;45.926;13.608;2023-02-11T00:02:59;2.40;55.00
52189;DHT22;38162;45.926;13.608;2023-02-11T00:05:25;2.40;55.00
52189;DHT22;38162;45.926;13.608;2023-02-11T00:07:51;2.40;55.10
52189;DHT22;38162;45.926;13.608;2023-02-11T00:10:16;2.30;55.20
52189;DHT22;38162;45.926;13.608;2023-02-11T00:12:42;2.30;55.30
52189;DHT22;38162;45.926;13.608;2023-02-11T00:15:08;2.20;55.40
52189;DHT22;38162;45.926;13.608;2023-02-11T00:17:34;2.30;55.80
52189;DHT22;38162;45.926;13.608;2023-02-11T00:20:00;2.30;55.40
52189;DHT22;38162;45.926;13.608;2023-02-11T00:22:26;2.20;55.40
52189;DHT22;38162;45.926;13.608;2023-02-11T00:24:51;2.20;56.00
52189;DHT22;38162;45.926;13.608;2023-02-11T00:27:17;2.30;56.60
52189;DHT22;38162;45.926;13.608;2023-02-11T00:29:43;2.30;56.20
52189;DHT22;38162;45.926;13.608;2023-02-11T00:32:08;2.20;55.80
52189;DHT22;38162;45.926;13.608;2023-02-11T00:34:35;2.20;55.90
52189;DHT22;38162;45.926;13.608;2023-02-11T00:37:01;2.10;55.90
52189;DHT22;38162;45.926;13.608;2023-02-11T00:39:27;2.10;55.90
52189;DHT22;38162;45.926;13.608;2023-02-11T00:41:53;2.10;56.30
52189;DHT22;38162;45.926;13.608;2023-02-11T00:44:19;2.10;56.20
52189;DHT22;38162;45.926;13.608;2023-02-11T00:46:45;2.10;56.20
52189;DHT22;38162;45.926;13.608;2023-02-11T00:49:11;2.10;56.30
52189;DHT22;38162;45.926;13.608;2023-02-11T00:51:37;2.10;56.30
52189;DHT22;38162;45.926;13.608;2023-02-11T00:54:03;2.00;56.30
52189;DHT22;38162;45.926;13.608;2023-02-11T00:56:29;2.00;56.60
52189;DHT22;38162;45.926;13.608;2023-02-11T00:58:54;2.00;56.60
52189;DHT22;38162;45.926;13.608;2023-02-11T01:01:20;1.90;56.70
52189;DHT22;38162;45.926;13.608;2023-02-11T01:04:05;1.90;56.50
52189;DHT22;38162;45.926;13.608;2023-02-11T01:06:49;1.90;56.50
52189;DHT22;38162;45.926;13.608;2023-02-11T01:09:37;1.90;56.80
52189;DHT22;38162;45.926;13.608;2023-02-11T01:12:03;1.90;56.90
52189;DHT22;38162;45.926;13.608;2023-02-11T01:14:28;1.90;56.80
52189;DHT22;38162;45.926;13.608;2023-02-11T01:16:54;2.00;56.80
52189;DHT22;38162;45.926;13.608;2023-02-11T01:19:20;1.90;56.60
52189;DHT22;38162;45.926;13.608;2023-02-11T01:21:46;1.90;56.80
52189;DHT22;38162;45.926;13.608;2023-02-11T01:24:12;1.80;56.70
52189;DHT22;38162;45.926;13.608;2023-02-11T01:26:37;1.90;56.90
52189;DHT22;38162;45.926;13.608;2023-02-11T01:29:03;1.80;57.00
52189;DHT22;38162;45.926;13.608;2023-02-11T01:31:29;1.80;57.50
52189;DHT22;38162;45.926;13.608;2023-02-11T01:33:55;1.80;57.10
52189;DHT22;38162;45.926;13.608;2023-02-11T01:36:21;1.80;57.20
52189;DHT22;38162;45.926;13.608;2023-02-11T01:38:46;1.70;57.50
52189;DHT22;38162;45.926;13.608;2023-02-11T01:41:14;1.70;57.60
52189;DHT22;38162;45.926;13.608;2023-02-11T01:43:46;1.70;57.20
52189;DHT22;38162;45.926;13.608;2023-02-11T01:46:30;1.70;57.20
52189;DHT22;38162;45.926;13.608;2023-02-11T01:49:26;1.60;57.00
52189;DHT22;38162;45.926;13.608;2023-02-11T01:54:36;1.60;57.20
52189;DHT22;38162;45.926;13.608;2023-02-11T01:57:24;1.60;57.50
52189;DHT22;38162;45.926;13.608;2023-02-11T02:00:13;1.60;57.70
52189;DHT22;38162;45.926;13.608;2023-02-11T02:05:25;1.60;57.50
52189;DHT22;38162;45.926;13.608;2023-02-11T02:10:28;1.70;57.00
52189;DHT22;38162;45.926;13.608;2023-02-11T02:12:55;1.80;56.60
52189;DHT22;38162;45.926;13.608;2023-02-11T02:15:25;1.80;56.50
52189;DHT22;38162;45.926;13.608;2023-02-11T02:18:27;1.90;56.50
52189;DHT22;38162;45.926;13.608;2023-02-11T02:29:33;2.10;56.00
52189;DHT22;38162;45.926;13.608;2023-02-11T02:32:28;2.10;56.00
52189;DHT22;38162;45.926;13.608;2023-02-11T02:40:56;2.00;56.40
52189;DHT22;38162;45.926;13.608;2023-02-11T02:43:25;2.00;56.40
52189;DHT22;38162;45.926;13.608;2023-02-11T02:45:52;2.00;56.40
52189;DHT22;38162;45.926;13.608;2023-02-11T02:48:30;2.00;56.70
52189;DHT22;38162;45.926;13.608;2023-02-11T02:52:07;2.10;56.40
52189;DHT22;38162;45.926;13.608;2023-02-11T03:02:56;2.20;55.90
52189;DHT22;38162;45.926;13.608;2023-02-11T03:05:39;2.20;55.70
52189;DHT22;38162;45.926;13.608;2023-02-11T03:10:45;2.30;55.60
52189;DHT22;38162;45.926;13.608;2023-02-11T03:13:13;2.30;55.60
52189;DHT22;38162;45.926;13.608;2023-02-11T03:15:47;2.30;55.20
52189;DHT22;38162;45.926;13.608;2023-02-11T03:18:17;2.30;55.80
52189;DHT22;38162;45.926;13.608;2023-02-11T03:20:48;2.30;55.90
52189;DHT22;38162;45.926;13.608;2023-02-11T03:23:27;2.30;55.90
52189;DHT22;38162;45.926;13.608;2023-02-11T03:28:34;2.30;56.00
52189;DHT22;38162;45.926;13.608;2023-02-11T03:31:09;2.30;56.10
52189;DHT22;38162;45.926;13.608;2023-02-11T03:33:52;2.30;55.90
52189;DHT22;38162;45.926;13.608;2023-02-11T03:36:31;2.30;55.90
52189;DHT22;38162;45.926;13.608;2023-02-11T03:38:59;2.30;56.00
52189;DHT22;38162;45.926;13.608;2023-02-11T03:41:26;2.30;55.90
52189;DHT22;38162;45.926;13.608;2023-02-11T03:43:55;2.30;55.90
52189;DHT22;38162;45.926;13.608;2023-02-11T03:46:28;2.30;56.00
52189;DHT22;38162;45.926;13.608;2023-02-11T03:49:00;2.30;55.90
52189;DHT22;38162;45.926;13.608;2023-02-11T03:51:28;2.20;55.60
52189;DHT22;38162;45.926;13.608;2023-02-11T03:53:57;2.30;55.40
52189;DHT22;38162;45.926;13.608;2023-02-11T03:56:26;2.30;55.40
52189;DHT22;38162;45.926;13.608;2023-02-11T03:58:54;2.30;55.70
52189;DHT22;38162;45.926;13.608;2023-02-11T04:01:19;2.30;55.60
52189;DHT22;38162;45.926;13.608;2023-02-11T04:03:45;2.30;55.80
52189;DHT22;38162;45.926;13.608;2023-02-11T04:06:11;2.20;55.90
52189;DHT22;38162;45.926;13.608;2023-02-11T04:08:37;2.20;55.90
52189;DHT22;38162;45.926;13.608;2023-02-11T04:11:02;2.20;55.90
52189;DHT22;38162;45.926;13.608;2023-02-11T04:13:28;2.20;55.80
52189;DHT22;38162;45.926;13.608;2023-02-11T04:15:54;2.10;55.80
52189;DHT22;38162;45.926;13.608;2023-02-11T04:18:20;2.10;55.80
52189;DHT22;38162;45.926;13.608;2023-02-11T04:20:45;2.00;56.20
52189;DHT22;38162;45.926;13.608;2023-02-11T04:23:11;2.00;56.20
52189;DHT22;38162;45.926;13.608;2023-02-11T04:25:37;2.00;56.20
52189;DHT22;38162;45.926;13.608;2023-02-11T04:28:03;1.90;56.20
52189;DHT22;38162;45.926;13.608;2023-02-11T04:30:28;1.80;56.30
52189;DHT22;38162;45.926;13.608;2023-02-11T04:32:54;1.80;56.50
52189;DHT22;38162;45.926;13.608;2023-02-11T04:35:20;1.80;56.40
52189;DHT22;38162;45.926;13.608;2023-02-11T04:37:46;1.70;56.40
52189;DHT22;38162;45.926;13.608;2023-02-11T04:40:11;1.70;56.70
52189;DHT22;38162;45.926;13.608;2023-02-11T04:42:37;1.60;56.70
52189;DHT22;38162;45.926;13.608;2023-02-11T04:45:03;1.60;56.80
52189;DHT22;38162;45.926;13.608;2023-02-11T04:47:29;1.50;56.70
52189;DHT22;38162;45.926;13.608;2023-02-11T04:49:55;1.50;57.00
52189;DHT22;38162;45.926;13.608;2023-02-11T04:52:21;1.50;57.40
52189;DHT22;38162;45.926;13.608;2023-02-11T04:54:47;1.50;57.20
52189;DHT22;38162;45.926;13.608;2023-02-11T04:57:12;1.40;57.20
52189;DHT22;38162;45.926;13.608;2023-02-11T04:59:38;1.40;57.20
52189;DHT22;38162;45.926;13.608;2023-02-11T05:02:04;1.50;57.50
52189;DHT22;38162;45.926;13.608;2023-02-11T05:04:30;1.50;57.60
52189;DHT22;38162;45.926;13.608;2023-02-11T05:06:56;1.50;57.60
52189;DHT22;38162;45.926;13.608;2023-02-11T05:09:21;1.40;57.60
52189;DHT22;38162;45.926;13.608;2023-02-11T05:11:48;1.50;58.10
52189;DHT22;38162;45.926;13.608;2023-02-11T05:14:14;1.50;57.70
52189;DHT22;38162;45.926;13.608;2023-02-11T05:16:39;1.50;57.60
52189;DHT22;38162;45.926;13.608;2023-02-11T05:19:05;1.50;57.60
52189;DHT22;38162;45.926;13.608;2023-02-11T05:21:31;1.50;57.80
52189;DHT22;38162;45.926;13.608;2023-02-11T05:23:57;1.50;57.80
52189;DHT22;38162;45.926;13.608;2023-02-11T05:26:23;1.40;57.70
52189;DHT22;38162;45.926;13.608;2023-02-11T05:28:48;1.40;57.90
52189;DHT22;38162;45.926;13.608;2023-02-11T05:31:14;1.40;57.80
52189;DHT22;38162;45.926;13.608;2023-02-11T05:33:41;1.50;57.70
52189;DHT22;38162;45.926;13.608;2023-02-11T05:36:10;1.40;57.70
52189;DHT22;38162;45.926;13.608;2023-02-11T05:38:36;1.40;57.80
52189;DHT22;38162;45.926;13.608;2023-02-11T05:41:04;1.40;58.00
52189;DHT22;38162;45.926;13.608;2023-02-11T05:43:30;1.40;57.80
52189;DHT22;38162;45.926;13.608;2023-02-11T05:45:55;1.40;57.60
52189;DHT22;38162;45.926;13.608;2023-02-11T05:48:21;1.30;57.70
52189;DHT22;38162;45.926;13.608;2023-02-11T05:50:47;1.30;57.70
52189;DHT22;38162;45.926;13.608;2023-02-11T05:53:14;1.30;58.40
52189;DHT22;38162;45.926;13.608;2023-02-11T05:55:39;1.20;57.70
52189;DHT22;38162;45.926;13.608;2023-02-11T05:58:06;1.20;57.60
52189;DHT22;38162;45.926;13.608;2023-02-11T06:00:33;1.20;57.90
52189;DHT22;38162;45.926;13.608;2023-02-11T06:02:59;1.20;57.90
52189;DHT22;38162;45.926;13.608;2023-02-11T06:05:25;1.10;58.00
52189;DHT22;38162;45.926;13.608;2023-02-11T06:07:50;1.10;58.20
52189;DHT22;38162;45.926;13.608;2023-02-11T06:10:16;1.10;58.40
52189;DHT22;38162;45.926;13.608;2023-02-11T06:12:42;1.10;58.50
52189;DHT22;38162;45.926;13.608;2023-02-11T06:15:09;1.00;58.50
52189;DHT22;38162;45.926;13.608;2023-02-11T06:17:34;1.00;58.50
52189;DHT22;38162;45.926;13.608;2023-02-11T06:20:02;1.00;58.50
52189;DHT22;38162;45.926;13.608;2023-02-11T06:22:29;1.00;58.60
52189;DHT22;38162;45.926;13.608;2023-02-11T06:24:54;1.00;58.40
52189;DHT22;38162;45.926;13.608;2023-02-11T06:27:20;1.00;58.60
52189;DHT22;38162;45.926;13.608;2023-02-11T06:29:46;0.90;58.70
52189;DHT22;38162;45.926;13.608;2023-02-11T06:32:12;0.90;58.70
52189;DHT22;38162;45.926;13.608;2023-02-11T06:34:38;0.90;58.80
52189;DHT22;38162;45.926;13.608;2023-02-11T06:37:04;0.90;58.90
52189;DHT22;38162;45.926;13.608;2023-02-11T06:39:30;0.90;59.20
52189;DHT22;38162;45.926;13.608;2023-02-11T06:41:55;0.90;59.20
52189;DHT22;38162;45.926;13.608;2023-02-11T06:44:21;0.90;59.30
52189;DHT22;38162;45.926;13.608;2023-02-11T06:46:47;0.90;59.50
52189;DHT22;38162;45.926;13.608;2023-02-11T06:49:13;0.90;59.40
52189;DHT22;38162;45.926;13.608;2023-02-11T06:51:39;0.90;59.30
52189;DHT22;38162;45.926;13.608;2023-02-11T06:54:05;1.00;59.30
52189;DHT22;38162;45.926;13.608;2023-02-11T06:56:31;1.00;59.40
52189;DHT22;38162;45.926;13.608;2023-02-11T06:58:58;1.00;59.70
52189;DHT22;38162;45.926;13.608;2023-02-11T07:01:25;1.00;59.80
52189;DHT22;38162;45.926;13.608;2023-02-11T07:03:51;1.00;60.00
52189;DHT22;38162;45.926;13.608;2023-02-11T07:06:20;1.10;59.90
52189;DHT22;38162;45.926;13.608;2023-02-11T07:08:46;1.10;59.70
52189;DHT22;38162;45.926;13.608;2023-02-11T07:13:39;1.10;59.60
52189;DHT22;38162;45.926;13.608;2023-02-11T07:16:10;1.20;59.80
52189;DHT22;38162;45.926;13.608;2023-02-11T07:18:37;1.20;59.60
52189;DHT22;38162;45.926;13.608;2023-02-11T07:21:07;1.30;59.50
52189;DHT22;38162;45.926;13.608;2023-02-11T07:23:33;1.30;59.60
52189;DHT22;38162;45.926;13.608;2023-02-11T07:26:04;1.30;59.70
52189;DHT22;38162;45.926;13.608;2023-02-11T07:28:29;1.40;59.70
52189;DHT22;38162;45.926;13.608;2023-02-11T07:30:55;1.40;59.70
52189;DHT22;38162;45.926;13.608;2023-02-11T07:33:21;1.50;59.60
52189;DHT22;38162;45.926;13.608;2023-02-11T07:35:46;1.60;59.50
52189;DHT22;38162;45.926;13.608;2023-02-11T07:38:12;1.70;59.50
52189;DHT22;38162;45.926;13.608;2023-02-11T07:40:38;1.70;59.20
52189;DHT22;38162;45.926;13.608;2023-02-11T07:43:04;1.70;59.10
52189;DHT22;38162;45.926;13.608;2023-02-11T07:45:29;1.70;59.00
52189;DHT22;38162;45.926;13.608;2023-02-11T07:47:55;1.80;58.80
52189;DHT22;38162;45.926;13.608;2023-02-11T07:50:21;1.90;58.60
52189;DHT22;38162;45.926;13.608;2023-02-11T07:52:46;2.00;58.50
52189;DHT22;38162;45.926;13.608;2023-02-11T07:55:12;2.10;58.30
52189;DHT22;38162;45.926;13.608;2023-02-11T07:57:38;2.10;58.00
52189;DHT22;38162;45.926;13.608;2023-02-11T08:00:04;2.20;57.80
52189;DHT22;38162;45.926;13.608;2023-02-11T08:02:30;2.30;57.90
52189;DHT22;38162;45.926;13.608;2023-02-11T08:04:56;2.40;57.80
52189;DHT22;38162;45.926;13.608;2023-02-11T08:07:21;2.60;58.00
52189;DHT22;38162;45.926;13.608;2023-02-11T08:09:47;2.70;57.50
52189;DHT22;38162;45.926;13.608;2023-02-11T08:12:13;2.80;56.50
52189;DHT22;38162;45.926;13.608;2023-02-11T08:14:38;2.80;56.40
52189;DHT22;38162;45.926;13.608;2023-02-11T08:17:04;2.90;56.10
52189;DHT22;38162;45.926;13.608;2023-02-11T08:19:29;3.00;56.00
52189;DHT22;38162;45.926;13.608;2023-02-11T08:21:56;3.00;55.70
52189;DHT22;38162;45.926;13.608;2023-02-11T08:24:22;3.00;55.40
52189;DHT22;38162;45.926;13.608;2023-02-11T08:26:48;3.10;55.50
52189;DHT22;38162;45.926;13.608;2023-02-11T08:29:15;3.10;55.90
52189;DHT22;38162;45.926;13.608;2023-02-11T08:31:44;3.10;56.30
52189;DHT22;38162;45.926;13.608;2023-02-11T08:34:10;3.10;56.40
52189;DHT22;38162;45.926;13.608;2023-02-11T08:36:39;3.20;56.50
52189;DHT22;38162;45.926;13.608;2023-02-11T08:39:16;3.20;56.60
52189;DHT22;38162;45.926;13.608;2023-02-11T08:41:43;3.30;56.90
52189;DHT22;38162;45.926;13.608;2023-02-11T08:44:08;3.40;57.30
52189;DHT22;38162;45.926;13.608;2023-02-11T08:46:34;3.50;57.30
52189;DHT22;38162;45.926;13.608;2023-02-11T08:49:00;3.60;57.30
52189;DHT22;38162;45.926;13.608;2023-02-11T08:51:27;3.70;57.10
52189;DHT22;38162;45.926;13.608;2023-02-11T08:53:54;3.80;56.80
52189;DHT22;38162;45.926;13.608;2023-02-11T08:56:21;4.00;56.90
52189;DHT22;38162;45.926;13.608;2023-02-11T08:58:50;4.00;56.60
52189;DHT22;38162;45.926;13.608;2023-02-11T09:01:25;4.20;56.50
52189;DHT22;38162;45.926;13.608;2023-02-11T09:06:17;4.30;55.50
52189;DHT22;38162;45.926;13.608;2023-02-11T09:08:45;4.50;55.70
52189;DHT22;38162;45.926;13.608;2023-02-11T09:16:12;4.80;54.50
52189;DHT22;38162;45.926;13.608;2023-02-11T09:18:40;4.90;55.10
52189;DHT22;38162;45.926;13.608;2023-02-11T09:21:07;5.00;54.80
52189;DHT22;38162;45.926;13.608;2023-02-11T09:23:34;5.10;54.20
52189;DHT22;38162;45.926;13.608;2023-02-11T09:26:18;5.10;53.40
52189;DHT22;38162;45.926;13.608;2023-02-11T09:28:44;5.20;53.40
52189;DHT22;38162;45.926;13.608;2023-02-11T09:31:12;5.30;53.80
52189;DHT22;38162;45.926;13.608;2023-02-11T09:33:39;5.30;53.20
52189;DHT22;38162;45.926;13.608;2023-02-11T09:36:20;5.40;52.90
52189;DHT22;38162;45.926;13.608;2023-02-11T09:38:46;5.40;52.60
52189;DHT22;38162;45.926;13.608;2023-02-11T09:41:32;5.50;52.30
52189;DHT22;38162;45.926;13.608;2023-02-11T09:44:02;5.50;52.70
52189;DHT22;38162;45.926;13.608;2023-02-11T09:46:37;5.50;52.50
52189;DHT22;38162;45.926;13.608;2023-02-11T09:49:05;5.50;52.50
52189;DHT22;38162;45.926;13.608;2023-02-11T09:51:50;5.60;52.10
52189;DHT22;38162;45.926;13.608;2023-02-11T09:57:11;5.70;51.20
52189;DHT22;38162;45.926;13.608;2023-02-11T09:59:36;5.80;50.90
52189;DHT22;38162;45.926;13.608;2023-02-11T10:02:23;5.80;50.60
52189;DHT22;38162;45.926;13.608;2023-02-11T10:08:40;5.90;50.40
52189;DHT22;38162;45.926;13.608;2023-02-11T10:11:19;5.90;50.20
52189;DHT22;38162;45.926;13.608;2023-02-11T10:13:41;6.00;50.00
52189;DHT22;38162;45.926;13.608;2023-02-11T10:19:33;6.00;50.10
52189;DHT22;38162;45.926;13.608;2023-02-11T10:21:55;6.10;49.90
52189;DHT22;38162;45.926;13.608;2023-02-11T10:24:24;6.10;50.00
52189;DHT22;38162;45.926;13.608;2023-02-11T10:26:53;6.10;50.00
52189;DHT22;38162;45.926;13.608;2023-02-11T10:29:37;6.10;49.50
52189;DHT22;38162;45.926;13.608;2023-02-11T10:32:28;6.20;49.10
52189;DHT22;38162;45.926;13.608;2023-02-11T10:35:01;6.30;49.10
52189;DHT22;38162;45.926;13.608;2023-02-11T10:37:27;6.30;48.90
52189;DHT22;38162;45.926;13.608;2023-02-11T10:39:52;6.50;48.90
52189;DHT22;38162;45.926;13.608;2023-02-11T10:42:18;6.50;49.30
52189;DHT22;38162;45.926;13.608;2023-02-11T10:45:02;6.60;48.60
52189;DHT22;38162;45.926;13.608;2023-02-11T10:47:34;6.70;48.80
52189;DHT22;38162;45.926;13.608;2023-02-11T10:52:49;6.90;48.70
52189;DHT22;38162;45.926;13.608;2023-02-11T10:55:19;7.00;48.30
52189;DHT22;38162;45.926;13.608;2023-02-11T11:02:43;7.20;48.10
52189;DHT22;38162;45.926;13.608;2023-02-11T11:05:22;7.20;48.10
52189;DHT22;38162;45.926;13.608;2023-02-11T11:07:57;7.30;48.50
52189;DHT22;38162;45.926;13.608;2023-02-11T11:10:44;7.40;48.40
52189;DHT22;38162;45.926;13.608;2023-02-11T11:13:32;7.50;47.90
52189;DHT22;38162;45.926;13.608;2023-02-11T11:16:15;7.60;46.30
52189;DHT22;38162;45.926;13.608;2023-02-11T11:18:43;7.60;45.50
52189;DHT22;38162;45.926;13.608;2023-02-11T11:21:22;7.70;45.00
52189;DHT22;38162;45.926;13.608;2023-02-11T11:23:55;7.70;44.90
52189;DHT22;38162;45.926;13.608;2023-02-11T11:26:22;7.70;45.00
52189;DHT22;38162;45.926;13.608;2023-02-11T11:31:34;7.70;44.60
52189;DHT22;38162;45.926;13.608;2023-02-11T11:34:26;7.60;44.60
52189;DHT22;38162;45.926;13.608;2023-02-11T11:36:54;7.60;44.60
52189;DHT22;38162;45.926;13.608;2023-02-11T11:39:25;7.60;45.30
52189;DHT22;38162;45.926;13.608;2023-02-11T11:42:00;7.60;46.00
52189;DHT22;38162;45.926;13.608;2023-02-11T11:44:32;7.60;46.10
52189;DHT22;38162;45.926;13.608;2023-02-11T11:55:24;8.00;45.10
52189;DHT22;38162;45.926;13.608;2023-02-11T11:57:51;8.00;45.20
52189;DHT22;38162;45.926;13.608;2023-02-11T12:00:20;8.10;45.20
52189;DHT22;38162;45.926;13.608;2023-02-11T12:08:27;8.50;45.40
52189;DHT22;38162;45.926;13.608;2023-02-11T12:22:52;9.30;43.80
52189;DHT22;38162;45.926;13.608;2023-02-11T12:25:25;9.40;43.60
52189;DHT22;38162;45.926;13.608;2023-02-11T12:28:16;9.50;43.50
52189;DHT22;38162;45.926;13.608;2023-02-11T12:31:05;9.70;43.60
52189;DHT22;38162;45.926;13.608;2023-02-11T12:39:29;10.00;43.20
52189;DHT22;38162;45.926;13.608;2023-02-11T12:55:44;10.50;41.40
52189;DHT22;38162;45.926;13.608;2023-02-11T12:58:23;10.60;41.40
52189;DHT22;38162;45.926;13.608;2023-02-11T13:03:34;10.70;40.80
52189;DHT22;38162;45.926;13.608;2023-02-11T13:08:37;10.80;40.20
52189;DHT22;38162;45.926;13.608;2023-02-11T13:11:09;10.90;40.20
52189;DHT22;38162;45.926;13.608;2023-02-11T13:13:59;11.00;39.20
52189;DHT22;38162;45.926;13.608;2023-02-11T13:16:44;11.10;38.90
52189;DHT22;38162;45.926;13.608;2023-02-11T13:19:17;11.10;39.40
52189;DHT22;38162;45.926;13.608;2023-02-11T13:21:59;11.20;38.80
52189;DHT22;38162;45.926;13.608;2023-02-11T13:24:42;11.20;38.10
52189;DHT22;38162;45.926;13.608;2023-02-11T13:35:38;11.50;38.30
52189;DHT22;38162;45.926;13.608;2023-02-11T13:40:41;11.60;38.30
52189;DHT22;38162;45.926;13.608;2023-02-11T13:43:19;11.60;37.70
52189;DHT22;38162;45.926;13.608;2023-02-11T13:45:47;11.70;37.90
52189;DHT22;38162;45.926;13.608;2023-02-11T13:48:23;11.70;36.90
52189;DHT22;38162;45.926;13.608;2023-02-11T13:50:52;11.70;38.10
52189;DHT22;38162;45.926;13.608;2023-02-11T13:53:19;11.70;38.40
52189;DHT22;38162;45.926;13.608;2023-02-11T13:55:51;11.70;38.20
52189;DHT22;38162;45.926;13.608;2023-02-11T13:58:32;11.60;37.30
52189;DHT22;38162;45.926;13.608;2023-02-11T14:01:01;11.60;36.90
52189;DHT22;38162;45.926;13.608;2023-02-11T14:03:35;11.60;37.40
52189;DHT22;38162;45.926;13.608;2023-02-11T14:06:25;11.60;37.70
52189;DHT22;38162;45.926;13.608;2023-02-11T14:19:40;11.50;37.80
52189;DHT22;38162;45.926;13.608;2023-02-11T14:29:39;11.40;37.60
52189;DHT22;38162;45.926;13.608;2023-02-11T14:42:57;11.30;38.90
52189;DHT22;38162;45.926;13.608;2023-02-11T14:45:27;11.20;38.70
52189;DHT22;38162;45.926;13.608;2023-02-11T14:50:57;11.10;38.20
52189;DHT22;38162;45.926;13.608;2023-02-11T14:53:22;11.10;38.00
52189;DHT22;38162;45.926;13.608;2023-02-11T14:55:53;11.00;38.10
52189;DHT22;38162;45.926;13.608;2023-02-11T14:58:20;11.00;38.90
52189;DHT22;38162;45.926;13.608;2023-02-11T15:03:35;10.90;38.80
52189;DHT22;38162;45.926;13.608;2023-02-11T15:08:36;10.80;39.20
52189;DHT22;38162;45.926;13.608;2023-02-11T15:11:10;10.70;39.30
52189;DHT22;38162;45.926;13.608;2023-02-11T15:13:37;10.70;39.30
52189;DHT22;38162;45.926;13.608;2023-02-11T15:16:07;10.70;39.20
52189;DHT22;38162;45.926;13.608;2023-02-11T15:18:42;10.60;39.80
52189;DHT22;38162;45.926;13.608;2023-02-11T15:21:09;10.60;39.80
52189;DHT22;38162;45.926;13.608;2023-02-11T15:23:35;10.50;39.90
52189;DHT22;38162;45.926;13.608;2023-02-11T15:26:02;10.50;39.70
52189;DHT22;38162;45.926;13.608;2023-02-11T15:28:36;10.40;39.60
52189;DHT22;38162;45.926;13.608;2023-02-11T15:31:13;10.40;39.10
52189;DHT22;38162;45.926;13.608;2023-02-11T15:33:40;10.40;39.20
52189;DHT22;38162;45.926;13.608;2023-02-11T15:36:06;10.30;39.50
52189;DHT22;38162;45.926;13.608;2023-02-11T15:38:34;10.30;39.60
52189;DHT22;38162;45.926;13.608;2023-02-11T15:41:01;10.30;39.70
52189;DHT22;38162;45.926;13.608;2023-02-11T15:43:47;10.20;39.50
52189;DHT22;38162;45.926;13.608;2023-02-11T15:46:19;10.20;39.40
52189;DHT22;38162;45.926;13.608;2023-02-11T15:48:53;10.20;39.80
52189;DHT22;38162;45.926;13.608;2023-02-11T15:51:27;10.20;40.40
52189;DHT22;38162;45.926;13.608;2023-02-11T15:54:06;10.10;40.50
52189;DHT22;38162;45.926;13.608;2023-02-11T15:56:39;10.10;40.90
52189;DHT22;38162;45.926;13.608;2023-02-11T15:59:53;10.00;41.80
52189;DHT22;38162;45.926;13.608;2023-02-11T16:02:18;10.00;42.90
52189;DHT22;38162;45.926;13.608;2023-02-11T16:05:05;10.00;43.80
52189;DHT22;38162;45.926;13.608;2023-02-11T16:07:48;9.90;44.80
52189;DHT22;38162;45.926;13.608;2023-02-11T16:10:22;9.90;46.00
52189;DHT22;38162;45.926;13.608;2023-02-11T16:12:58;9.80;46.30
52189;DHT22;38162;45.926;13.608;2023-02-11T16:18:25;9.60;47.40
52189;DHT22;38162;45.926;13.608;2023-02-11T16:20:51;9.60;47.70
52189;DHT22;38162;45.926;13.608;2023-02-11T16:23:22;9.50;47.90
52189;DHT22;38162;45.926;13.608;2023-02-11T16:26:01;9.50;48.10
52189;DHT22;38162;45.926;13.608;2023-02-11T16:28:30;9.40;48.30
52189;DHT22;38162;45.926;13.608;2023-02-11T16:30:57;9.40;48.40
52189;DHT22;38162;45.926;13.608;2023-02-11T16:33:23;9.30;48.50
52189;DHT22;38162;45.926;13.608;2023-02-11T16:35:48;9.30;48.70
52189;DHT22;38162;45.926;13.608;2023-02-11T16:38:17;9.20;48.80
52189;DHT22;38162;45.926;13.608;2023-02-11T16:40:43;9.20;49.00
52189;DHT22;38162;45.926;13.608;2023-02-11T16:43:11;9.20;49.20
52189;DHT22;38162;45.926;13.608;2023-02-11T16:45:37;9.20;49.30
52189;DHT22;38162;45.926;13.608;2023-02-11T16:48:05;9.10;49.40
52189;DHT22;38162;45.926;13.608;2023-02-11T16:50:33;9.10;49.50
52189;DHT22;38162;45.926;13.608;2023-02-11T16:52:59;9.00;49.70
52189;DHT22;38162;45.926;13.608;2023-02-11T16:55:27;9.00;49.80
52189;DHT22;38162;45.926;13.608;2023-02-11T16:57:52;9.00;50.00
52189;DHT22;38162;45.926;13.608;2023-02-11T17:00:18;8.90;50.10
52189;DHT22;38162;45.926;13.608;2023-02-11T17:02:44;8.90;50.20
52189;DHT22;38162;45.926;13.608;2023-02-11T17:05:19;8.90;50.30
52189;DHT22;38162;45.926;13.608;2023-02-11T17:07:47;8.90;50.50
52189;DHT22;38162;45.926;13.608;2023-02-11T17:10:18;8.80;50.40
52189;DHT22;38162;45.926;13.608;2023-02-11T17:12:44;8.80;50.60
52189;DHT22;38162;45.926;13.608;2023-02-11T17:15:09;8.80;50.80
52189;DHT22;38162;45.926;13.608;2023-02-11T17:17:35;8.80;50.90
52189;DHT22;38162;45.926;13.608;2023-02-11T17:20:01;8.70;51.10
52189;DHT22;38162;45.926;13.608;2023-02-11T17:22:27;8.70;51.30
52189;DHT22;38162;45.926;13.608;2023-02-11T17:24:52;8.70;51.50
52189;DHT22;38162;45.926;13.608;2023-02-11T17:27:20;8.70;51.80
52189;DHT22;38162;45.926;13.608;2023-02-11T17:29:46;8.70;52.10
52189;DHT22;38162;45.926;13.608;2023-02-11T17:32:11;8.60;52.00
52189;DHT22;38162;45.926;13.608;2023-02-11T17:34:37;8.60;52.10
52189;DHT22;38162;45.926;13.608;2023-02-11T17:37:03;8.60;52.20
52189;DHT22;38162;45.926;13.608;2023-02-11T17:39:34;8.60;52.30
52189;DHT22;38162;45.926;13.608;2023-02-11T17:41:59;8.50;52.20
52189;DHT22;38162;45.926;13.608;2023-02-11T17:44:26;8.50;52.20
52189;DHT22;38162;45.926;13.608;2023-02-11T17:46:52;8.50;52.30
52189;DHT22;38162;45.926;13.608;2023-02-11T17:49:17;8.50;52.50
52189;DHT22;38162;45.926;13.608;2023-02-11T17:51:44;8.50;52.80
52189;DHT22;38162;45.926;13.608;2023-02-11T17:54:13;8.40;52.60
52189;DHT22;38162;45.926;13.608;2023-02-11T17:56:39;8.40;52.70
52189;DHT22;38162;45.926;13.608;2023-02-11T17:59:06;8.40;52.90
52189;DHT22;38162;45.926;13.608;2023-02-11T18:01:33;8.30;53.10
52189;DHT22;38162;45.926;13.608;2023-02-11T18:03:59;8.30;53.20
52189;DHT22;38162;45.926;13.608;2023-02-11T18:06:25;8.30;53.50
52189;DHT22;38162;45.926;13.608;2023-02-11T18:08:53;8.30;53.70
52189;DHT22;38162;45.926;13.608;2023-02-11T18:11:22;8.30;54.00
52189;DHT22;38162;45.926;13.608;2023-02-11T18:13:49;8.20;54.20
52189;DHT22;38162;45.926;13.608;2023-02-11T18:16:22;8.20;54.30
52189;DHT22;38162;45.926;13.608;2023-02-11T18:18:49;8.20;54.60
52189;DHT22;38162;45.926;13.608;2023-02-11T18:21:18;8.10;54.60
52189;DHT22;38162;45.926;13.608;2023-02-11T18:23:45;8.10;54.60
52189;DHT22;38162;45.926;13.608;2023-02-11T18:26:11;8.10;54.80
52189;DHT22;38162;45.926;13.608;2023-02-11T18:28:38;8.10;54.90
52189;DHT22;38162;45.926;13.608;2023-02-11T18:31:05;8.00;54.80